Time;durP1;ratioP1;P1;durP2;ratioP2;P2;SDS_P1;SDS_P2;PMS_P1;PMS_P2;Temp;Humidity;BMP_temperature;BMP_pressure;BME280_temperature;BME280_humidity;BME280_pressure;Samples;Min_cycle;Max_cycle;Signal;HPM_P1;HPM_P2
2021/09/16 00:01:52;;;;;;;32.38;18.30;;;;;;;16.55;100.00;96099.63;5005361;28;20045;-82
2021/09/16 00:04:19;;;;;;;36.03;18.85;;;;;;;16.51;100.00;96094.06;5018815;28;20062;-82
2021/09/16 00:06:45;;;;;;;35.70;18.45;;;;;;;16.59;100.00;96095.34;5018394;28;20050;-82
2021/09/16 00:09:13;;;;;;;32.15;17.38;;;;;;;16.63;100.00;96091.06;5008881;28;20037;-76
2021/09/16 00:11:41;;;;;;;35.75;17.80;;;;;;;16.61;100.00;96087.09;5003300;28;20054;-76
2021/09/16 00:14:06;;;;;;;33.70;18.05;;;;;;;16.62;100.00;96092.13;5021773;28;20046;-75
2021/09/16 00:16:32;;;;;;;35.33;17.70;;;;;;;16.50;100.00;96092.47;4996873;28;20041;-76
2021/09/16 00:18:57;;;;;;;37.72;18.73;;;;;;;16.57;100.00;96092.16;4989354;28;20034;-77
2021/09/16 00:21:24;;;;;;;30.52;17.38;;;;;;;16.61;100.00;96079.91;4991233;28;20459;-77
2021/09/16 00:23:53;;;;;;;34.22;17.80;;;;;;;16.64;100.00;96082.03;4985626;28;20049;-77
2021/09/16 00:26:18;;;;;;;32.88;18.20;;;;;;;16.63;100.00;96090.25;5007286;28;20418;-76
2021/09/16 00:28:46;;;;;;;31.70;17.45;;;;;;;16.61;100.00;96081.78;5015867;28;20282;-77
2021/09/16 00:31:12;;;;;;;33.83;17.73;;;;;;;16.66;100.00;96084.41;4992142;28;20128;-77
2021/09/16 00:33:40;;;;;;;28.52;16.45;;;;;;;16.67;100.00;96091.31;5009331;28;20125;-77
2021/09/16 00:36:06;;;;;;;35.00;18.30;;;;;;;16.65;100.00;96080.16;5009599;28;20038;-76
2021/09/16 00:38:33;;;;;;;32.22;17.60;;;;;;;16.62;100.00;96078.06;5004242;28;20092;-77
2021/09/16 00:40:59;;;;;;;33.90;18.43;;;;;;;16.61;100.00;96074.59;4992413;28;20067;-77
2021/09/16 00:43:25;;;;;;;32.92;17.83;;;;;;;16.62;100.00;96078.84;5012622;28;20102;-77
2021/09/16 00:45:50;;;;;;;31.95;16.75;;;;;;;16.66;100.00;96084.41;4988324;28;20069;-78
2021/09/16 00:48:16;;;;;;;32.60;17.58;;;;;;;16.78;100.00;96087.53;5012327;28;20049;-78
2021/09/16 00:50:42;;;;;;;30.55;16.30;;;;;;;16.85;100.00;96082.72;4987475;28;20042;-77
2021/09/16 00:53:09;;;;;;;34.22;18.20;;;;;;;16.74;100.00;96086.50;5011459;28;20093;-77
2021/09/16 00:55:37;;;;;;;32.15;16.88;;;;;;;16.66;100.00;96084.41;5014448;28;20423;-78
2021/09/16 00:58:03;;;;;;;33.67;17.77;;;;;;;16.66;100.00;96087.06;4983045;28;20038;-78
2021/09/16 01:00:29;;;;;;;30.23;16.38;;;;;;;16.70;100.00;96080.94;5007719;28;20046;-79
2021/09/16 01:02:54;;;;;;;31.52;16.85;;;;;;;16.68;100.00;96076.94;5014556;28;20461;-79
2021/09/16 01:05:20;;;;;;;30.45;16.77;;;;;;;16.71;100.00;96081.75;4993778;28;20110;-77
2021/09/16 01:07:46;;;;;;;28.70;16.25;;;;;;;16.73;100.00;96079.59;4981054;28;20513;-79
2021/09/16 01:10:12;;;;;;;31.55;17.02;;;;;;;16.70;100.00;96088.09;5015581;28;20089;-79
2021/09/16 01:12:40;;;;;;;34.22;16.77;;;;;;;16.72;100.00;96083.31;5006855;28;20411;-78
2021/09/16 01:15:08;;;;;;;;;;;;;;;16.88;100.00;96090.09;4998257;28;20035;-79
2021/09/16 01:17:34;;;;;;;27.13;15.07;;;;;;;16.94;100.00;96086.31;4989682;28;19993;-76
2021/09/16 01:20:01;;;;;;;28.08;16.08;;;;;;;17.03;100.00;96087.31;5026626;28;20017;-76
2021/09/16 01:22:30;;;;;;;;;;;;;;;17.01;100.00;96091.34;5020175;28;20049;-76
2021/09/16 01:24:56;;;;;;;27.13;15.90;;;;;;;16.77;100.00;96088.59;4989177;28;19921;-75
2021/09/16 01:27:24;;;;;;;29.30;15.95;;;;;;;16.74;100.00;96074.03;5013244;28;20044;-77
2021/09/16 01:29:51;;;;;;;31.52;16.73;;;;;;;16.63;100.00;96075.16;5000448;28;20065;-77
2021/09/16 01:32:17;;;;;;;30.00;17.00;;;;;;;16.58;100.00;96071.72;5020543;28;20046;-75
2021/09/16 01:34:43;;;;;;;32.60;16.27;;;;;;;16.64;100.00;96076.72;4996358;28;20052;-77
2021/09/16 01:37:08;;;;;;;37.10;16.95;;;;;;;16.72;100.00;96078.00;5001975;28;20026;-77
2021/09/16 01:39:38;;;;;;;31.42;17.17;;;;;;;16.72;100.00;96070.03;4992269;28;20042;-77
2021/09/16 01:42:07;;;;;;;32.15;17.25;;;;;;;16.68;100.00;96076.94;5010147;28;20034;-77
2021/09/16 01:44:35;;;;;;;30.92;16.25;;;;;;;16.77;100.00;96075.31;5004150;28;20533;-77
2021/09/16 01:47:04;;;;;;;27.85;15.88;;;;;;;16.70;100.00;96080.13;5020521;28;20034;-77
2021/09/16 01:49:30;;;;;;;29.13;16.38;;;;;;;16.62;100.00;96073.53;5024274;28;20106;-76
2021/09/16 01:51:58;;;;;;;30.85;16.08;;;;;;;16.64;100.00;96071.41;5017460;28;20033;-77
2021/09/16 01:54:25;;;;;;;;;;;;;;;16.62;100.00;96062.91;5001318;28;20042;-76
2021/09/16 01:56:52;;;;;;;;;;;;;;;16.59;100.00;96057.38;5029522;28;19965;-77
2021/09/16 01:59:20;;;;;;;32.40;15.73;;;;;;;16.58;100.00;96056.59;5029204;28;19932;-77
2021/09/16 02:01:46;;;;;;;30.67;15.45;;;;;;;16.52;100.00;96052.41;5024776;28;20042;-77
2021/09/16 02:04:12;;;;;;;33.40;16.77;;;;;;;16.44;100.00;96050.31;5015874;28;20116;-79
2021/09/16 02:06:37;;;;;;;30.73;16.67;;;;;;;16.39;100.00;96058.31;4990481;28;20042;-76
2021/09/16 02:09:03;;;;;;;28.95;16.25;;;;;;;16.37;100.00;96055.94;4994599;28;20097;-78
2021/09/16 02:11:31;;;;;;;27.88;15.43;;;;;;;16.39;100.00;96053.78;4986542;28;20053;-77
2021/09/16 02:14:01;;;;;;;27.48;14.77;;;;;;;16.35;100.00;96052.75;5005245;28;20136;-78
2021/09/16 02:16:27;;;;;;;27.92;16.05;;;;;;;16.32;100.00;96055.97;5009558;28;20105;-77
2021/09/16 02:18:52;;;;;;;29.70;16.17;;;;;;;16.43;100.00;96054.84;4981914;28;20069;-77
2021/09/16 02:21:18;;;;;;;31.38;15.13;;;;;;;16.42;100.00;96052.47;5018044;28;20056;-77
2021/09/16 02:23:44;;;;;;;30.88;16.65;;;;;;;16.38;100.00;96057.53;5001681;28;20134;-78
2021/09/16 02:26:12;;;;;;;30.65;16.70;;;;;;;16.37;100.00;96055.94;4979147;28;20077;-77
2021/09/16 02:28:37;;;;;;;34.38;17.17;;;;;;;16.36;100.00;96053.53;5029792;28;20038;-78
2021/09/16 02:31:04;;;;;;;33.15;16.60;;;;;;;16.41;100.00;96056.97;4990316;28;20091;-77
2021/09/16 02:33:32;;;;;;;34.17;17.70;;;;;;;16.41;100.00;96051.66;5000939;28;20073;-76
2021/09/16 02:35:58;;;;;;;28.67;15.65;;;;;;;16.48;100.00;96057.44;5008080;28;20034;-78
2021/09/16 02:38:24;;;;;;;32.05;15.75;;;;;;;16.51;100.00;96051.56;5003543;28;20478;-78
2021/09/16 02:40:53;;;;;;;30.60;16.13;;;;;;;16.42;100.00;96053.25;5000473;28;20121;-77
2021/09/16 02:43:19;;;;;;;32.47;17.17;;;;;;;16.43;100.00;96043.41;5006471;28;20481;-77
2021/09/16 02:45:45;;;;;;;31.80;16.55;;;;;;;16.44;100.00;96040.47;5015680;28;20466;-78
2021/09/16 02:48:12;;;;;;;30.70;16.10;;;;;;;16.49;100.00;96048.41;5003925;28;20194;-78
2021/09/16 02:50:37;;;;;;;28.57;15.53;;;;;;;16.56;100.00;96049.97;4984455;28;20401;-77
2021/09/16 02:53:03;;;;;;;28.50;15.80;;;;;;;16.49;100.00;96048.41;4983171;28;20803;-77
2021/09/16 02:55:29;;;;;;;30.20;15.85;;;;;;;16.45;100.00;96047.38;5010550;28;20042;-78
2021/09/16 02:57:54;;;;;;;29.65;15.55;;;;;;;16.50;100.00;96050.00;5004404;28;20214;-85
2021/09/16 03:00:20;;;;;;;27.95;14.82;;;;;;;16.54;100.00;96044.94;5023165;28;20038;-85
2021/09/16 03:02:48;;;;;;;25.38;14.02;;;;;;;16.54;100.00;96035.09;5013928;28;20053;-84
2021/09/16 03:05:15;;;;;;;28.52;15.02;;;;;;;16.48;100.00;96033.56;5004820;28;20056;-86
2021/09/16 03:07:41;;;;;;;25.23;12.17;;;;;;;16.47;100.00;96031.97;4998898;28;20040;-86
2021/09/16 03:10:12;;;;;;;20.00;10.50;;;;;;;16.54;100.00;96037.75;4994393;28;20373;-86
2021/09/16 03:12:38;;;;;;;21.45;11.23;;;;;;;16.51;100.00;96046.25;4991931;28;20553;-86
2021/09/16 03:15:05;;;;;;;21.50;10.80;;;;;;;16.50;100.00;96041.25;5013172;28;20093;-81
2021/09/16 03:17:31;;;;;;;20.38;11.68;;;;;;;16.53;100.00;96038.84;5009745;28;20358;-81
2021/09/16 03:19:56;;;;;;;16.08;9.00;;;;;;;16.49;100.00;96037.78;4993562;28;20069;-85
2021/09/16 03:22:23;;;;;;;13.73;7.57;;;;;;;16.52;100.00;96034.59;4981984;28;20153;-78
2021/09/16 03:24:49;;;;;;;13.88;8.20;;;;;;;16.51;100.00;96033.00;4983424;28;20046;-77
2021/09/16 03:27:14;;;;;;;16.05;8.23;;;;;;;16.48;100.00;96033.56;4999761;28;20100;-77
2021/09/16 03:29:40;;;;;;;16.88;8.32;;;;;;;16.46;100.00;96033.03;5012388;28;20575;-77
2021/09/16 03:32:06;;;;;;;17.20;8.65;;;;;;;16.47;100.00;96029.31;5006802;28;20046;-77
2021/09/16 03:34:32;;;;;;;16.40;8.43;;;;;;;16.50;100.00;96028.75;5000282;28;20112;-78
2021/09/16 03:37:00;;;;;;;14.82;8.10;;;;;;;16.39;100.00;96021.16;5000690;28;20446;-82
2021/09/16 03:39:27;;;;;;;;;;;;;;;16.40;100.00;96028.81;5008183;28;20034;-79
2021/09/16 03:41:52;;;;;;;17.52;9.88;;;;;;;16.45;100.00;96034.09;4986614;28;20326;-78
2021/09/16 03:44:20;;;;;;;17.38;9.45;;;;;;;16.51;100.00;96027.69;4999528;28;20045;-79
2021/09/16 03:46:45;;;;;;;;;;;;;;;16.43;100.00;96025.63;4982340;28;20159;-78
2021/09/16 03:49:11;;;;;;;17.85;9.50;;;;;;;16.34;100.00;96024.63;5005465;28;19921;-77
2021/09/16 03:51:39;;;;;;;18.98;10.43;;;;;;;16.32;100.00;96020.69;4998226;28;20026;-77
2021/09/16 03:54:05;;;;;;;21.50;12.60;;;;;;;16.27;100.00;96022.28;4989574;28;20465;-76
2021/09/16 03:56:34;;;;;;;18.85;9.63;;;;;;;16.26;100.00;96023.38;5003175;28;20108;-77
2021/09/16 03:59:00;;;;;;;17.67;9.25;;;;;;;16.20;100.00;96019.16;4994055;28;20065;-77
2021/09/16 04:01:25;;;;;;;17.65;9.05;;;;;;;16.28;100.00;96015.13;5006307;28;20050;-76
2021/09/16 04:03:51;;;;;;;19.13;9.27;;;;;;;16.25;100.00;96020.97;5014171;28;20041;-77
2021/09/16 04:06:19;;;;;;;16.33;8.80;;;;;;;16.18;100.00;96025.78;4997798;28;20405;-78
2021/09/16 04:08:47;;;;;;;18.23;8.85;;;;;;;16.24;100.00;96022.03;4986178;28;20042;-75
2021/09/16 04:11:13;;;;;;;19.90;10.25;;;;;;;16.31;100.00;96017.22;5005843;28;20030;-76
2021/09/16 04:13:42;;;;;;;24.42;13.00;;;;;;;16.20;100.00;96013.06;4985314;28;20052;-77
2021/09/16 04:16:08;;;;;;;25.27;13.75;;;;;;;16.19;100.00;96019.41;5002760;28;20116;-77
2021/09/16 04:18:33;;;;;;;27.45;15.00;;;;;;;16.16;100.00;96019.97;5011476;28;20405;-77
2021/09/16 04:20:59;;;;;;;28.30;15.48;;;;;;;16.16;100.00;96018.13;5002171;28;20044;-77
2021/09/16 04:23:25;;;;;;;31.40;17.08;;;;;;;16.17;100.00;96025.00;5016267;28;20044;-77
2021/09/16 04:25:50;;;;;;;31.15;15.30;;;;;;;16.11;100.00;96028.75;4993988;28;20064;-77
2021/09/16 04:28:16;;;;;;;31.73;16.02;;;;;;;16.15;100.00;96027.16;5004331;28;20072;-76
2021/09/16 04:30:43;;;;;;;31.55;16.65;;;;;;;16.22;100.00;96026.84;4988871;28;20049;-78
2021/09/16 04:33:08;;;;;;;28.52;15.82;;;;;;;16.13;100.00;96028.47;4997923;28;20405;-78
2021/09/16 04:35:34;;;;;;;31.15;15.45;;;;;;;16.17;100.00;96034.84;5012696;28;20045;-78
2021/09/16 04:37:59;;;;;;;32.72;16.95;;;;;;;16.11;100.00;96030.63;5017418;28;20117;-78
2021/09/16 04:40:25;;;;;;;38.13;17.98;;;;;;;16.12;100.00;96034.88;5004320;28;20092;-78
2021/09/16 04:42:51;;;;;;;39.45;18.67;;;;;;;16.09;100.00;96038.88;4996832;28;20498;-78
2021/09/16 04:45:16;;;;;;;39.42;18.77;;;;;;;16.10;100.00;96037.81;5001887;28;20046;-77
2021/09/16 04:47:43;;;;;;;35.50;17.75;;;;;;;16.09;100.00;96033.56;5004162;28;20049;-77
2021/09/16 04:50:13;;;;;;;38.55;17.70;;;;;;;16.14;100.00;96038.03;4983600;28;20202;-78
2021/09/16 04:52:42;;;;;;;33.65;17.20;;;;;;;16.13;100.00;96039.88;4982791;28;20042;-78
2021/09/16 04:55:08;;;;;;;33.83;16.45;;;;;;;16.11;100.00;96041.25;5014876;28;20140;-78
2021/09/16 04:57:35;;;;;;;34.53;16.63;;;;;;;16.13;100.00;96033.78;5007597;28;20061;-78
2021/09/16 05:00:01;;;;;;;34.67;17.20;;;;;;;16.10;100.00;96040.44;4988503;28;20038;-78
2021/09/16 05:02:27;;;;;;;34.50;16.75;;;;;;;16.10;100.00;96034.34;5019792;28;20045;-77
2021/09/16 05:04:54;;;;;;;36.60;17.45;;;;;;;16.10;100.00;96044.97;4995312;28;20420;-77
2021/09/16 05:07:20;;;;;;;33.88;17.92;;;;;;;16.20;100.00;96045.69;4993928;28;20055;-78
2021/09/16 05:09:45;;;;;;;35.30;17.60;;;;;;;16.18;100.00;96052.34;4989052;28;20116;-79
2021/09/16 05:12:11;;;;;;;37.05;18.60;;;;;;;16.20;100.00;96048.34;5037330;28;20034;-75
2021/09/16 05:14:38;;;;;;;37.20;19.38;;;;;;;16.23;100.00;96054.97;5038606;28;20026;-75
2021/09/16 05:17:04;;;;;;;39.85;19.20;;;;;;;16.27;100.00;96053.34;5020611;28;20057;-77
2021/09/16 05:19:30;;;;;;;39.47;18.95;;;;;;;16.27;100.00;96056.00;4992767;28;20507;-75
2021/09/16 05:21:59;;;;;;;37.65;18.08;;;;;;;16.20;100.00;96056.31;5012302;28;20065;-76
2021/09/16 05:24:27;;;;;;;36.00;19.08;;;;;;;16.26;100.00;96067.69;5000971;28;20395;-75
2021/09/16 05:26:53;;;;;;;39.40;19.45;;;;;;;16.25;100.00;96061.59;4999396;28;20045;-77
2021/09/16 05:29:19;;;;;;;39.05;18.90;;;;;;;16.39;100.00;96059.09;5019768;28;20060;-77
2021/09/16 05:31:44;;;;;;;38.13;18.05;;;;;;;16.26;100.00;96063.19;5030227;28;20148;-77
2021/09/16 05:34:10;;;;;;;35.42;18.75;;;;;;;16.31;100.00;96056.25;4999946;28;20045;-77
2021/09/16 05:36:36;;;;;;;37.15;18.10;;;;;;;16.35;100.00;96062.56;5017754;28;20052;-75
2021/09/16 05:39:03;;;;;;;34.95;17.95;;;;;;;16.27;100.00;96071.94;5028161;28;20046;-76
2021/09/16 05:41:30;;;;;;;38.85;20.02;;;;;;;16.36;100.00;96059.66;5017892;28;20421;-77
2021/09/16 05:43:56;;;;;;;35.47;18.92;;;;;;;16.39;100.00;96068.94;4985296;28;20286;-77
2021/09/16 05:46:21;;;;;;;36.25;19.05;;;;;;;16.36;100.00;96072.94;5018908;28;20046;-81
2021/09/16 05:48:47;;;;;;;38.67;20.92;;;;;;;16.40;100.00;96067.84;5029761;28;20041;-79
2021/09/16 05:51:13;;;;;;;35.47;19.17;;;;;;;16.38;100.00;96073.44;5014322;28;20054;-79
2021/09/16 05:53:39;;;;;;;37.92;19.45;;;;;;;16.43;100.00;96067.31;5022407;28;20049;-79
2021/09/16 05:56:06;;;;;;;37.63;18.02;;;;;;;16.49;100.00;96074.97;5034197;28;20048;-78
2021/09/16 05:58:32;;;;;;;34.30;18.50;;;;;;;16.57;100.00;96072.78;5025976;28;20474;-80
2021/09/16 06:00:57;;;;;;;35.88;17.83;;;;;;;16.61;100.00;96068.50;5018979;28;20045;-78
2021/09/16 06:03:23;;;;;;;31.08;18.02;;;;;;;16.62;100.00;96068.22;5000818;28;20073;-78
2021/09/16 06:05:48;;;;;;;35.03;18.77;;;;;;;16.50;100.00;96067.78;4986130;28;20049;-79
2021/09/16 06:08:14;;;;;;;36.00;18.77;;;;;;;16.47;100.00;96073.66;4997574;28;20037;-80
2021/09/16 06:10:40;;;;;;;40.15;18.58;;;;;;;16.43;100.00;96067.31;5011074;28;20166;-78
2021/09/16 06:13:07;;;;;;;35.00;18.00;;;;;;;16.55;100.00;96067.75;5001822;28;20493;-77
2021/09/16 06:15:35;;;;;;;35.40;18.53;;;;;;;16.62;100.00;96072.75;5016838;28;20560;-77
2021/09/16 06:18:01;;;;;;;43.60;19.10;;;;;;;16.57;100.00;96064.81;5000117;28;20034;-76
2021/09/16 06:20:27;;;;;;;34.55;18.25;;;;;;;16.65;100.00;96065.03;5017701;28;20042;-77
2021/09/16 06:22:53;;;;;;;37.22;18.08;;;;;;;16.76;100.00;96069.22;5000362;28;20494;-77
2021/09/16 06:25:19;;;;;;;35.67;18.50;;;;;;;16.70;100.00;96070.31;4999717;28;20042;-77
2021/09/16 06:27:45;;;;;;;36.40;18.98;;;;;;;16.72;100.00;96062.06;5015641;28;20497;-77
2021/09/16 06:30:13;;;;;;;34.80;18.10;;;;;;;16.76;100.00;96071.88;5033397;28;20516;-77
2021/09/16 06:32:41;;;;;;;34.40;18.13;;;;;;;16.73;100.00;96058.34;4992431;28;20036;-77
2021/09/16 06:35:10;;;;;;;33.63;18.42;;;;;;;16.76;100.00;96053.28;5016825;28;20128;-77
2021/09/16 06:37:38;;;;;;;34.50;18.25;;;;;;;16.86;100.00;96057.72;5016500;28;20062;-77
2021/09/16 06:40:04;;;;;;;40.35;20.08;;;;;;;16.97;100.00;96053.09;5017915;28;20045;-76
2021/09/16 06:42:32;;;;;;;35.50;18.27;;;;;;;16.98;100.00;96050.16;5016453;28;20133;-77
2021/09/16 06:44:58;;;;;;;;;;;;;;;17.04;100.00;96049.03;5007367;28;20094;-77
2021/09/16 06:47:25;;;;;;;36.70;20.13;;;;;;;17.05;100.00;96055.94;4986769;28;19956;-76
2021/09/16 06:49:50;;;;;;;37.15;18.98;;;;;;;17.15;100.00;96055.06;5000179;28;20050;-77
2021/09/16 06:52:20;;;;;;;31.40;17.73;;;;;;;17.10;100.00;96057.75;5010802;28;20060;-77
2021/09/16 06:54:46;;;;;;;31.33;16.70;;;;;;;17.10;100.00;96062.28;5017145;28;20050;-77
2021/09/16 06:57:15;;;;;;;34.33;18.67;;;;;;;17.20;100.00;96072.81;4991099;28;20053;-76
2021/09/16 06:59:43;;;;;;;30.83;16.70;;;;;;;17.25;100.00;96070.13;5016259;28;20046;-77
2021/09/16 07:02:08;;;;;;;34.22;15.93;;;;;;;17.39;100.00;96070.25;5024198;28;20038;-77
2021/09/16 07:04:35;;;;;;;30.15;16.33;;;;;;;17.37;100.00;96070.50;5019335;28;20186;-77
2021/09/16 07:07:04;;;;;;;33.67;18.77;;;;;;;17.40;100.00;96077.94;5017237;28;20694;-77
2021/09/16 07:09:29;;;;;;;33.35;18.77;;;;;;;17.45;100.00;96077.88;5004045;28;20052;-77
2021/09/16 07:11:55;;;;;;;35.63;18.25;;;;;;;17.37;100.00;96081.16;5003781;28;20097;-78
2021/09/16 07:14:21;;;;;;;31.15;17.38;;;;;;;17.43;100.00;96079.22;4980707;28;20049;-77
2021/09/16 07:16:46;;;;;;;30.70;17.30;;;;;;;17.48;100.00;96074.66;4986906;28;20046;-77
2021/09/16 07:19:12;;;;;;;30.73;17.48;;;;;;;17.57;100.00;96072.16;4996043;28;20038;-78
2021/09/16 07:21:39;;;;;;;30.02;18.27;;;;;;;17.43;100.00;96081.88;5012428;28;20497;-77
2021/09/16 07:24:05;;;;;;;30.08;16.45;;;;;;;17.46;100.00;96076.81;5006137;28;20053;-75
2021/09/16 07:26:31;;;;;;;26.05;15.55;;;;;;;17.62;100.00;96074.78;5030346;28;20097;-76
2021/09/16 07:28:58;;;;;;;30.02;16.25;;;;;;;17.58;100.00;96068.44;5032674;28;20033;-77
2021/09/16 07:31:24;;;;;;;;;;;;;;;17.77;100.00;96073.84;5005152;28;20132;-77
2021/09/16 07:33:49;;;;;;;27.50;15.38;;;;;;;17.67;100.00;96069.41;5028800;28;19944;-77
2021/09/16 07:36:15;;;;;;;26.77;14.15;;;;;;;17.72;100.00;96082.66;5018427;28;20057;-77
2021/09/16 07:38:42;;;;;;;28.02;15.15;;;;;;;17.69;100.00;96085.06;5002333;28;20045;-76
2021/09/16 07:41:08;;;;;;;31.15;16.52;;;;;;;17.75;100.00;96084.75;5014156;28;20049;-77
2021/09/16 07:43:34;;;;;;;25.70;14.50;;;;;;;17.86;100.00;96090.75;5002263;28;20034;-78
2021/09/16 07:46:00;;;;;;;26.23;16.33;;;;;;;17.87;100.00;96095.00;4979613;28;20589;-77
2021/09/16 07:48:25;;;;;;;25.98;15.38;;;;;;;17.83;100.00;96091.31;5008595;28;20041;-77
2021/09/16 07:50:51;;;;;;;26.35;15.20;;;;;;;17.86;100.00;96090.75;5027036;28;20083;-77
2021/09/16 07:53:17;;;;;;;26.42;16.02;;;;;;;18.02;100.00;96099.34;5011815;28;20426;-77
2021/09/16 07:55:45;;;;;;;29.58;16.33;;;;;;;18.18;100.00;96099.94;5000627;28;20117;-77
2021/09/16 07:58:11;;;;;;;31.17;16.67;;;;;;;18.34;98.91;96103.97;5011464;28;20048;-78
2021/09/16 08:00:36;;;;;;;28.05;16.05;;;;;;;18.38;98.42;96104.19;5016463;28;20084;-78
2021/09/16 08:03:02;;;;;;;30.60;16.73;;;;;;;18.30;98.14;96105.66;5015502;28;20038;-78
2021/09/16 08:05:28;;;;;;;25.58;15.38;;;;;;;18.46;97.23;96104.34;5017225;28;20065;-76
2021/09/16 08:07:53;;;;;;;28.70;16.58;;;;;;;18.44;97.14;96106.50;4997853;28;20091;-77
2021/09/16 08:10:19;;;;;;;27.33;16.13;;;;;;;18.52;97.02;96097.09;5014964;28;20037;-77
2021/09/16 08:12:46;;;;;;;29.02;16.52;;;;;;;18.73;96.63;96106.38;4999332;28;20053;-78
2021/09/16 08:15:12;;;;;;;31.53;16.67;;;;;;;18.85;96.86;96105.94;5000480;28;20510;-76
2021/09/16 08:17:37;;;;;;;28.25;14.93;;;;;;;18.80;94.93;96106.00;5009378;28;20049;-78
2021/09/16 08:20:06;;;;;;;27.85;15.50;;;;;;;18.80;95.00;96109.47;5014990;28;20507;-77
2021/09/16 08:22:32;;;;;;;24.85;14.43;;;;;;;18.79;94.96;96112.44;5020790;28;20042;-77
2021/09/16 08:25:00;;;;;;;27.38;15.35;;;;;;;18.95;95.06;96116.44;4998993;28;20131;-77
2021/09/16 08:27:26;;;;;;;28.05;14.18;;;;;;;18.97;94.26;96111.59;5029428;28;20072;-77
2021/09/16 08:29:55;;;;;;;25.27;15.30;;;;;;;18.84;94.91;96109.69;5025687;28;20029;-78
2021/09/16 08:32:21;;;;;;;24.38;14.52;;;;;;;18.86;94.04;96110.19;5027851;28;20483;-77
2021/09/16 08:34:47;;;;;;;23.80;14.43;;;;;;;18.99;93.39;96106.75;5025880;28;20132;-77
2021/09/16 08:37:13;;;;;;;27.13;14.35;;;;;;;19.07;93.16;96108.78;5028193;28;20049;-76
2021/09/16 08:39:38;;;;;;;23.67;13.75;;;;;;;19.43;91.46;96112.72;5018533;28;20065;-75
2021/09/16 08:42:05;;;;;;;20.15;12.32;;;;;;;19.33;91.64;96117.13;5011798;28;20054;-78
2021/09/16 08:44:31;;;;;;;23.35;13.63;;;;;;;19.39;91.69;96112.50;5030254;28;20042;-78
2021/09/16 08:46:58;;;;;;;21.40;12.27;;;;;;;19.44;91.21;96108.94;5028936;28;20041;-76
2021/09/16 08:49:24;;;;;;;19.15;11.95;;;;;;;19.53;90.76;96105.28;5035672;28;20048;-76
2021/09/16 08:51:53;;;;;;;18.83;11.52;;;;;;;19.55;90.12;96107.69;5008583;28;20045;-77
2021/09/16 08:54:19;;;;;;;18.80;11.77;;;;;;;19.65;90.21;96112.88;5036972;28;20080;-77
2021/09/16 08:56:46;;;;;;;21.38;12.15;;;;;;;19.82;90.30;96107.72;5010761;28;20046;-79
2021/09/16 08:59:17;;;;;;;21.02;11.68;;;;;;;19.96;88.36;96101.56;5017826;28;20089;-77
2021/09/16 09:01:45;;;;;;;18.17;10.88;;;;;;;20.16;87.46;96101.94;4993135;28;20246;-77
2021/09/16 09:04:15;;;;;;;16.88;10.13;;;;;;;20.46;84.80;96110.44;4982989;28;20048;-76
2021/09/16 09:06:42;;;;;;;16.63;10.38;;;;;;;20.14;85.34;96104.13;5002534;28;20033;-77
2021/09/16 09:09:13;;;;;;;15.32;9.95;;;;;;;20.47;86.15;96109.34;5024566;28;20026;-76
2021/09/16 09:12:01;;;;;;;17.60;10.30;;;;;;;20.45;85.81;96104.28;5021051;28;20099;-78
2021/09/16 09:14:29;;;;;;;17.48;10.38;;;;;;;20.49;84.90;96109.03;5028759;28;20576;-77
2021/09/16 09:16:58;;;;;;;14.07;9.48;;;;;;;20.45;85.60;96109.63;4992210;28;20046;-77
2021/09/16 09:19:28;;;;;;;14.43;8.30;;;;;;;20.84;83.40;96110.13;5013267;28;20555;-79
2021/09/16 09:21:54;;;;;;;13.18;8.50;;;;;;;20.68;83.04;96107.78;5029199;28;20041;-76
2021/09/16 09:24:31;;;;;;;13.85;8.60;;;;;;;20.76;84.07;96102.81;5052193;28;20056;-76
2021/09/16 09:26:57;;;;;;;13.50;7.55;;;;;;;20.78;82.56;96100.66;5036733;28;20129;-76
2021/09/16 09:29:23;;;;;;;12.75;6.95;;;;;;;21.00;82.26;96106.00;5036632;28;20038;-76
2021/09/16 09:31:55;;;;;;;14.32;7.80;;;;;;;20.81;82.56;96094.69;4993544;28;20047;-77
2021/09/16 09:34:23;;;;;;;13.77;6.93;;;;;;;20.83;82.58;96097.84;5025192;28;20050;-76
2021/09/16 09:36:51;;;;;;;12.25;7.13;;;;;;;20.79;82.49;96091.53;5023948;28;20096;-77
2021/09/16 09:39:26;;;;;;;12.57;7.38;;;;;;;20.99;81.85;96096.38;5015021;28;20383;-78
2021/09/16 09:41:52;;;;;;;14.23;7.18;;;;;;;20.53;82.58;96086.75;4984080;28;20052;-76
2021/09/16 09:44:18;;;;;;;13.27;7.03;;;;;;;20.46;83.66;96089.06;5008308;28;20136;-77
2021/09/16 09:46:48;;;;;;;13.43;7.50;;;;;;;20.49;86.28;96082.31;5044333;28;20125;-76
2021/09/16 09:49:16;;;;;;;14.32;7.85;;;;;;;20.28;88.73;96076.59;5039565;28;20076;-74
2021/09/16 09:51:43;;;;;;;13.60;8.65;;;;;;;20.18;88.89;96073.09;5029437;28;20033;-77
2021/09/16 09:54:23;;;;;;;14.00;7.78;;;;;;;20.22;88.35;96069.78;5005130;28;20126;-76
2021/09/16 09:57:07;;;;;;;16.55;7.88;;;;;;;20.66;87.48;96074.44;5000785;28;20030;-76
2021/09/16 09:59:50;;;;;;;11.90;7.68;;;;;;;20.92;84.89;96070.06;4998908;28;20394;-78
2021/09/16 10:02:16;;;;;;;13.57;7.32;;;;;;;21.17;82.40;96076.66;5013087;28;20038;-78
2021/09/16 10:04:43;;;;;;;11.77;6.70;;;;;;;21.45;79.32;96063.13;4981606;28;20050;-77
2021/09/16 10:07:08;;;;;;;10.45;5.22;;;;;;;21.71;77.77;96064.03;5018855;28;20052;-76
2021/09/16 10:09:36;;;;;;;12.70;6.60;;;;;;;21.75;77.75;96067.66;5010289;28;20102;-76
2021/09/16 10:12:02;;;;;;;14.52;6.32;;;;;;;21.92;77.34;96068.81;5015614;28;20109;-77
2021/09/16 10:14:28;;;;;;;10.55;4.95;;;;;;;21.97;75.59;96066.00;5018835;28;20123;-77
2021/09/16 10:16:54;;;;;;;9.00;4.22;;;;;;;22.27;74.12;96067.78;5000945;28;20045;-78
2021/09/16 10:19:20;;;;;;;10.45;4.13;;;;;;;22.13;74.72;96059.13;4987578;28;20048;-77
2021/09/16 10:21:48;;;;;;;10.57;4.47;;;;;;;21.82;76.39;96069.09;5005620;28;20046;-79
2021/09/16 10:24:17;;;;;;;9.95;4.70;;;;;;;21.78;75.83;96058.22;5011738;28;20165;-77
2021/09/16 10:26:48;;;;;;;8.88;4.00;;;;;;;21.60;76.11;96069.97;5005826;28;20110;-78
2021/09/16 10:29:34;;;;;;;10.63;4.10;;;;;;;21.22;82.35;96071.19;5001930;28;20066;-78
2021/09/16 10:32:35;;;;;;;10.10;4.53;;;;;;;20.73;86.07;96074.03;4997616;28;20039;-79
2021/09/16 10:35:15;;;;;;;14.63;5.30;;;;;;;19.97;92.71;96077.28;5012893;28;20410;-78
2021/09/16 10:37:41;;;;;;;13.18;6.43;;;;;;;19.55;98.07;96081.00;5004348;28;20041;-78
2021/09/16 10:40:23;;;;;;;11.23;4.70;;;;;;;19.15;97.78;96085.97;5013636;28;20502;-78
2021/09/16 10:42:58;;;;;;;10.50;4.50;;;;;;;19.01;98.92;96077.16;5016755;28;20070;-77
2021/09/16 10:45:33;;;;;;;10.80;5.05;;;;;;;18.88;100.00;96079.47;5021345;28;20049;-77
2021/09/16 10:48:25;;;;;;;11.15;5.20;;;;;;;18.75;100.00;96076.78;5001563;28;20045;-78
2021/09/16 10:50:54;;;;;;;10.88;4.60;;;;;;;18.61;100.00;96069.47;5016935;28;20050;-79
2021/09/16 10:53:34;;;;;;;11.60;4.78;;;;;;;18.54;100.00;96081.59;4999291;28;20072;-79
2021/09/16 10:56:03;;;;;;;12.20;6.40;;;;;;;18.39;100.00;96087.91;5020074;28;20575;-79
2021/09/16 10:58:30;;;;;;;13.38;6.47;;;;;;;18.42;100.00;96087.34;5003298;28;20449;-78
2021/09/16 11:00:56;;;;;;;10.95;5.32;;;;;;;18.16;100.00;96086.13;5026080;28;20477;-77
2021/09/16 11:03:22;;;;;;;11.13;5.43;;;;;;;18.36;100.00;96089.31;5037868;28;20136;-78
2021/09/16 11:05:55;;;;;;;9.50;3.90;;;;;;;18.10;100.00;96080.06;5018691;28;20053;-79
2021/09/16 11:08:44;;;;;;;9.48;4.07;;;;;;;18.08;100.00;96095.53;5010610;28;20087;-79
2021/09/16 11:11:10;;;;;;;10.52;4.10;;;;;;;18.00;100.00;96096.97;5027369;28;20432;-78
2021/09/16 11:13:51;;;;;;;9.27;4.13;;;;;;;17.93;100.00;96101.06;5016173;28;20101;-78
2021/09/16 11:16:24;;;;;;;9.05;4.00;;;;;;;17.87;100.00;96097.66;5006323;28;20031;-80